sensor_id;sensor_type;location;lat;lon;timestamp;P1;durP1;ratioP1;P2;durP2;ratioP2
15312;SDS011;7757;52.626;4.746;2023-08-17T00:00:14;14.20;;;3.00;;
15312;SDS011;7757;52.626;4.746;2023-08-17T00:02:40;12.23;;;2.63;;
15312;SDS011;7757;52.626;4.746;2023-08-17T00:05:06;11.05;;;3.13;;
15312;SDS011;7757;52.626;4.746;2023-08-17T00:07:32;10.15;;;2.38;;
15312;SDS011;7757;52.626;4.746;2023-08-17T00:10:00;12.23;;;2.42;;
15312;SDS011;7757;52.626;4.746;2023-08-17T00:12:28;11.07;;;2.30;;
15312;SDS011;7757;52.626;4.746;2023-08-17T00:14:54;10.45;;;2.10;;
15312;SDS011;7757;52.626;4.746;2023-08-17T00:17:20;10.32;;;2.75;;
15312;SDS011;7757;52.626;4.746;2023-08-17T00:19:46;9.00;;;2.15;;
15312;SDS011;7757;52.626;4.746;2023-08-17T00:22:12;8.18;;;2.10;;
15312;SDS011;7757;52.626;4.746;2023-08-17T00:24:38;10.15;;;2.47;;
15312;SDS011;7757;52.626;4.746;2023-08-17T00:27:05;11.15;;;2.65;;
15312;SDS011;7757;52.626;4.746;2023-08-17T00:29:31;8.35;;;2.08;;
15312;SDS011;7757;52.626;4.746;2023-08-17T00:31:57;14.77;;;2.80;;
15312;SDS011;7757;52.626;4.746;2023-08-17T00:34:22;12.02;;;2.40;;
15312;SDS011;7757;52.626;4.746;2023-08-17T00:36:49;12.73;;;3.10;;
15312;SDS011;7757;52.626;4.746;2023-08-17T00:39:14;12.50;;;2.28;;
15312;SDS011;7757;52.626;4.746;2023-08-17T00:41:40;9.35;;;2.33;;
15312;SDS011;7757;52.626;4.746;2023-08-17T00:44:06;11.52;;;2.53;;
15312;SDS011;7757;52.626;4.746;2023-08-17T00:46:31;10.15;;;2.25;;
15312;SDS011;7757;52.626;4.746;2023-08-17T00:48:59;11.38;;;2.10;;
15312;SDS011;7757;52.626;4.746;2023-08-17T00:51:26;9.70;;;2.30;;
15312;SDS011;7757;52.626;4.746;2023-08-17T00:53:52;12.88;;;2.53;;
15312;SDS011;7757;52.626;4.746;2023-08-17T00:56:19;8.75;;;2.33;;
15312;SDS011;7757;52.626;4.746;2023-08-17T00:58:45;9.35;;;2.08;;
15312;SDS011;7757;52.626;4.746;2023-08-17T01:01:10;8.13;;;2.35;;
15312;SDS011;7757;52.626;4.746;2023-08-17T01:03:36;9.60;;;2.20;;
15312;SDS011;7757;52.626;4.746;2023-08-17T01:06:02;10.30;;;2.15;;
15312;SDS011;7757;52.626;4.746;2023-08-17T01:08:28;10.25;;;2.10;;
15312;SDS011;7757;52.626;4.746;2023-08-17T01:11:02;9.23;;;2.00;;
15312;SDS011;7757;52.626;4.746;2023-08-17T01:13:35;8.68;;;2.20;;
15312;SDS011;7757;52.626;4.746;2023-08-17T01:16:09;10.85;;;2.40;;
15312;SDS011;7757;52.626;4.746;2023-08-17T01:18:40;12.63;;;2.83;;
15312;SDS011;7757;52.626;4.746;2023-08-17T01:21:07;10.93;;;2.45;;
15312;SDS011;7757;52.626;4.746;2023-08-17T01:23:35;11.68;;;2.38;;
15312;SDS011;7757;52.626;4.746;2023-08-17T01:26:00;9.63;;;2.45;;
15312;SDS011;7757;52.626;4.746;2023-08-17T01:28:26;10.23;;;2.50;;
15312;SDS011;7757;52.626;4.746;2023-08-17T01:30:57;12.93;;;2.17;;
15312;SDS011;7757;52.626;4.746;2023-08-17T01:33:29;9.17;;;2.27;;
15312;SDS011;7757;52.626;4.746;2023-08-17T01:36:06;9.90;;;2.50;;
15312;SDS011;7757;52.626;4.746;2023-08-17T01:38:33;12.73;;;3.03;;
15312;SDS011;7757;52.626;4.746;2023-08-17T01:41:00;9.75;;;2.30;;
15312;SDS011;7757;52.626;4.746;2023-08-17T01:43:27;9.07;;;2.05;;
15312;SDS011;7757;52.626;4.746;2023-08-17T01:45:53;9.23;;;2.50;;
15312;SDS011;7757;52.626;4.746;2023-08-17T01:48:21;11.88;;;2.83;;
15312;SDS011;7757;52.626;4.746;2023-08-17T01:50:47;14.90;;;2.78;;
15312;SDS011;7757;52.626;4.746;2023-08-17T01:53:15;8.48;;;2.33;;
15312;SDS011;7757;52.626;4.746;2023-08-17T01:55:40;11.15;;;2.42;;
15312;SDS011;7757;52.626;4.746;2023-08-17T01:58:06;12.23;;;2.47;;
15312;SDS011;7757;52.626;4.746;2023-08-17T02:00:31;14.05;;;3.00;;
15312;SDS011;7757;52.626;4.746;2023-08-17T02:03:01;10.27;;;2.15;;
15312;SDS011;7757;52.626;4.746;2023-08-17T02:05:26;11.50;;;2.20;;
15312;SDS011;7757;52.626;4.746;2023-08-17T02:07:54;11.27;;;2.10;;
15312;SDS011;7757;52.626;4.746;2023-08-17T02:10:19;9.25;;;2.10;;
15312;SDS011;7757;52.626;4.746;2023-08-17T02:12:44;8.60;;;2.13;;
15312;SDS011;7757;52.626;4.746;2023-08-17T02:15:10;12.10;;;2.30;;
15312;SDS011;7757;52.626;4.746;2023-08-17T02:17:35;11.00;;;2.00;;
15312;SDS011;7757;52.626;4.746;2023-08-17T02:20:01;9.43;;;2.17;;
15312;SDS011;7757;52.626;4.746;2023-08-17T02:22:26;15.52;;;2.78;;
15312;SDS011;7757;52.626;4.746;2023-08-17T02:24:51;10.00;;;2.10;;
15312;SDS011;7757;52.626;4.746;2023-08-17T02:27:17;9.43;;;2.10;;
15312;SDS011;7757;52.626;4.746;2023-08-17T02:29:42;13.93;;;2.97;;
15312;SDS011;7757;52.626;4.746;2023-08-17T02:32:08;12.23;;;2.60;;
15312;SDS011;7757;52.626;4.746;2023-08-17T02:34:33;11.20;;;2.38;;
15312;SDS011;7757;52.626;4.746;2023-08-17T02:36:58;10.10;;;2.40;;
15312;SDS011;7757;52.626;4.746;2023-08-17T02:39:24;12.05;;;2.28;;
15312;SDS011;7757;52.626;4.746;2023-08-17T02:41:49;10.68;;;2.25;;
15312;SDS011;7757;52.626;4.746;2023-08-17T02:44:15;11.45;;;2.35;;
15312;SDS011;7757;52.626;4.746;2023-08-17T02:46:40;10.75;;;2.17;;
15312;SDS011;7757;52.626;4.746;2023-08-17T02:49:09;10.70;;;2.30;;
15312;SDS011;7757;52.626;4.746;2023-08-17T02:51:36;10.10;;;2.10;;
15312;SDS011;7757;52.626;4.746;2023-08-17T02:54:01;9.65;;;2.15;;
15312;SDS011;7757;52.626;4.746;2023-08-17T02:56:27;10.93;;;2.30;;
15312;SDS011;7757;52.626;4.746;2023-08-17T02:58:52;11.20;;;2.50;;
15312;SDS011;7757;52.626;4.746;2023-08-17T03:01:17;6.72;;;1.85;;
15312;SDS011;7757;52.626;4.746;2023-08-17T03:03:43;12.18;;;2.42;;
15312;SDS011;7757;52.626;4.746;2023-08-17T03:06:08;7.45;;;1.90;;
15312;SDS011;7757;52.626;4.746;2023-08-17T03:08:34;10.13;;;2.17;;
15312;SDS011;7757;52.626;4.746;2023-08-17T03:11:01;8.75;;;2.30;;
15312;SDS011;7757;52.626;4.746;2023-08-17T03:13:26;8.98;;;2.30;;
15312;SDS011;7757;52.626;4.746;2023-08-17T03:15:51;10.48;;;2.38;;
15312;SDS011;7757;52.626;4.746;2023-08-17T03:18:18;8.90;;;2.22;;
15312;SDS011;7757;52.626;4.746;2023-08-17T03:20:44;9.30;;;2.50;;
15312;SDS011;7757;52.626;4.746;2023-08-17T03:23:10;7.40;;;1.90;;
15312;SDS011;7757;52.626;4.746;2023-08-17T03:25:36;9.85;;;2.08;;
15312;SDS011;7757;52.626;4.746;2023-08-17T03:28:03;10.18;;;2.22;;
15312;SDS011;7757;52.626;4.746;2023-08-17T03:30:30;10.07;;;2.00;;
15312;SDS011;7757;52.626;4.746;2023-08-17T03:32:56;9.80;;;2.25;;
15312;SDS011;7757;52.626;4.746;2023-08-17T03:35:22;10.00;;;1.80;;
15312;SDS011;7757;52.626;4.746;2023-08-17T03:37:47;9.15;;;2.42;;
15312;SDS011;7757;52.626;4.746;2023-08-17T03:40:12;10.85;;;2.00;;
15312;SDS011;7757;52.626;4.746;2023-08-17T03:42:41;8.65;;;2.85;;
15312;SDS011;7757;52.626;4.746;2023-08-17T03:45:06;11.45;;;2.30;;
15312;SDS011;7757;52.626;4.746;2023-08-17T03:47:32;11.70;;;1.88;;
15312;SDS011;7757;52.626;4.746;2023-08-17T03:49:57;11.50;;;2.00;;
15312;SDS011;7757;52.626;4.746;2023-08-17T03:52:23;8.07;;;2.00;;
15312;SDS011;7757;52.626;4.746;2023-08-17T03:54:48;8.95;;;2.00;;
15312;SDS011;7757;52.626;4.746;2023-08-17T03:57:13;7.65;;;2.10;;
15312;SDS011;7757;52.626;4.746;2023-08-17T03:59:39;8.13;;;2.20;;
15312;SDS011;7757;52.626;4.746;2023-08-17T04:02:06;6.95;;;1.88;;
15312;SDS011;7757;52.626;4.746;2023-08-17T04:04:31;9.00;;;2.03;;
15312;SDS011;7757;52.626;4.746;2023-08-17T04:06:57;8.27;;;1.90;;
15312;SDS011;7757;52.626;4.746;2023-08-17T04:09:22;6.82;;;1.77;;
15312;SDS011;7757;52.626;4.746;2023-08-17T04:11:49;8.00;;;2.03;;
15312;SDS011;7757;52.626;4.746;2023-08-17T04:14:14;10.02;;;2.65;;
15312;SDS011;7757;52.626;4.746;2023-08-17T04:16:40;9.23;;;2.00;;
15312;SDS011;7757;52.626;4.746;2023-08-17T04:19:05;11.52;;;2.25;;
15312;SDS011;7757;52.626;4.746;2023-08-17T04:21:31;10.35;;;2.55;;
15312;SDS011;7757;52.626;4.746;2023-08-17T04:23:57;8.07;;;1.90;;
15312;SDS011;7757;52.626;4.746;2023-08-17T04:26:22;7.55;;;1.92;;
15312;SDS011;7757;52.626;4.746;2023-08-17T04:28:50;9.18;;;2.17;;
15312;SDS011;7757;52.626;4.746;2023-08-17T04:31:16;10.30;;;2.15;;
15312;SDS011;7757;52.626;4.746;2023-08-17T04:33:44;12.65;;;2.55;;
15312;SDS011;7757;52.626;4.746;2023-08-17T04:36:09;9.82;;;2.33;;
15312;SDS011;7757;52.626;4.746;2023-08-17T04:38:35;8.65;;;2.20;;
15312;SDS011;7757;52.626;4.746;2023-08-17T04:41:00;12.02;;;2.42;;
15312;SDS011;7757;52.626;4.746;2023-08-17T04:43:25;11.48;;;2.30;;
15312;SDS011;7757;52.626;4.746;2023-08-17T04:45:51;5.88;;;1.75;;
15312;SDS011;7757;52.626;4.746;2023-08-17T04:48:16;8.18;;;2.15;;
15312;SDS011;7757;52.626;4.746;2023-08-17T04:50:41;14.10;;;2.50;;
15312;SDS011;7757;52.626;4.746;2023-08-17T04:53:07;11.45;;;2.28;;
15312;SDS011;7757;52.626;4.746;2023-08-17T04:55:33;9.88;;;2.00;;
15312;SDS011;7757;52.626;4.746;2023-08-17T04:57:59;10.77;;;2.60;;
15312;SDS011;7757;52.626;4.746;2023-08-17T05:00:26;9.18;;;2.33;;
15312;SDS011;7757;52.626;4.746;2023-08-17T05:02:54;7.65;;;2.17;;
15312;SDS011;7757;52.626;4.746;2023-08-17T05:05:20;10.25;;;2.13;;
15312;SDS011;7757;52.626;4.746;2023-08-17T05:07:46;8.40;;;1.80;;
15312;SDS011;7757;52.626;4.746;2023-08-17T05:10:11;11.48;;;2.47;;
15312;SDS011;7757;52.626;4.746;2023-08-17T05:12:38;8.82;;;2.03;;
15312;SDS011;7757;52.626;4.746;2023-08-17T05:15:03;7.18;;;2.10;;
15312;SDS011;7757;52.626;4.746;2023-08-17T05:17:29;10.68;;;2.28;;
15312;SDS011;7757;52.626;4.746;2023-08-17T05:19:54;11.40;;;2.45;;
15312;SDS011;7757;52.626;4.746;2023-08-17T05:22:20;9.38;;;2.22;;
15312;SDS011;7757;52.626;4.746;2023-08-17T05:24:46;7.32;;;1.75;;
15312;SDS011;7757;52.626;4.746;2023-08-17T05:27:12;11.82;;;2.47;;
15312;SDS011;7757;52.626;4.746;2023-08-17T05:29:37;8.55;;;2.00;;
15312;SDS011;7757;52.626;4.746;2023-08-17T05:32:03;10.93;;;2.60;;
15312;SDS011;7757;52.626;4.746;2023-08-17T05:34:28;8.73;;;2.03;;
15312;SDS011;7757;52.626;4.746;2023-08-17T05:36:54;10.23;;;2.40;;
15312;SDS011;7757;52.626;4.746;2023-08-17T05:39:19;11.07;;;2.13;;
15312;SDS011;7757;52.626;4.746;2023-08-17T05:41:44;8.00;;;2.15;;
15312;SDS011;7757;52.626;4.746;2023-08-17T05:44:10;11.70;;;2.10;;
15312;SDS011;7757;52.626;4.746;2023-08-17T05:46:35;9.52;;;2.13;;
15312;SDS011;7757;52.626;4.746;2023-08-17T05:49:04;11.95;;;2.13;;
15312;SDS011;7757;52.626;4.746;2023-08-17T05:51:29;9.88;;;2.08;;
15312;SDS011;7757;52.626;4.746;2023-08-17T05:53:55;11.82;;;2.42;;
15312;SDS011;7757;52.626;4.746;2023-08-17T05:56:24;10.85;;;2.00;;
15312;SDS011;7757;52.626;4.746;2023-08-17T05:58:50;11.60;;;2.20;;
15312;SDS011;7757;52.626;4.746;2023-08-17T06:01:15;16.65;;;2.40;;
15312;SDS011;7757;52.626;4.746;2023-08-17T06:03:41;12.00;;;2.42;;
15312;SDS011;7757;52.626;4.746;2023-08-17T06:06:06;9.02;;;2.00;;
15312;SDS011;7757;52.626;4.746;2023-08-17T06:08:31;11.02;;;2.08;;
15312;SDS011;7757;52.626;4.746;2023-08-17T06:11:00;10.50;;;2.25;;
15312;SDS011;7757;52.626;4.746;2023-08-17T06:13:26;11.52;;;2.60;;
15312;SDS011;7757;52.626;4.746;2023-08-17T06:15:51;10.00;;;2.25;;
15312;SDS011;7757;52.626;4.746;2023-08-17T06:18:17;11.02;;;2.28;;
15312;SDS011;7757;52.626;4.746;2023-08-17T06:20:42;11.00;;;2.33;;
15312;SDS011;7757;52.626;4.746;2023-08-17T06:23:08;10.25;;;2.10;;
15312;SDS011;7757;52.626;4.746;2023-08-17T06:25:34;8.05;;;2.00;;
15312;SDS011;7757;52.626;4.746;2023-08-17T06:28:00;9.73;;;2.10;;
15312;SDS011;7757;52.626;4.746;2023-08-17T06:30:26;8.05;;;2.00;;
15312;SDS011;7757;52.626;4.746;2023-08-17T06:32:52;7.50;;;1.85;;
15312;SDS011;7757;52.626;4.746;2023-08-17T06:35:18;9.60;;;2.03;;
15312;SDS011;7757;52.626;4.746;2023-08-17T06:37:43;11.45;;;2.28;;
15312;SDS011;7757;52.626;4.746;2023-08-17T06:40:09;9.95;;;1.95;;
15312;SDS011;7757;52.626;4.746;2023-08-17T06:42:35;9.73;;;1.90;;
15312;SDS011;7757;52.626;4.746;2023-08-17T06:45:00;10.05;;;2.20;;
15312;SDS011;7757;52.626;4.746;2023-08-17T06:47:26;13.45;;;2.35;;
15312;SDS011;7757;52.626;4.746;2023-08-17T06:49:51;11.43;;;2.08;;
15312;SDS011;7757;52.626;4.746;2023-08-17T06:52:17;11.80;;;1.98;;
15312;SDS011;7757;52.626;4.746;2023-08-17T06:54:42;10.40;;;2.20;;
15312;SDS011;7757;52.626;4.746;2023-08-17T06:57:08;8.75;;;1.90;;
15312;SDS011;7757;52.626;4.746;2023-08-17T06:59:33;10.65;;;2.00;;
15312;SDS011;7757;52.626;4.746;2023-08-17T07:01:59;8.00;;;1.90;;
15312;SDS011;7757;52.626;4.746;2023-08-17T07:04:24;9.13;;;2.03;;
15312;SDS011;7757;52.626;4.746;2023-08-17T07:06:50;8.02;;;1.77;;
15312;SDS011;7757;52.626;4.746;2023-08-17T07:09:16;6.63;;;1.85;;
15312;SDS011;7757;52.626;4.746;2023-08-17T07:11:41;7.15;;;1.80;;
15312;SDS011;7757;52.626;4.746;2023-08-17T07:14:07;7.10;;;1.80;;
15312;SDS011;7757;52.626;4.746;2023-08-17T07:16:32;6.78;;;1.60;;
15312;SDS011;7757;52.626;4.746;2023-08-17T07:18:58;10.30;;;2.10;;
15312;SDS011;7757;52.626;4.746;2023-08-17T07:21:23;8.00;;;1.88;;
15312;SDS011;7757;52.626;4.746;2023-08-17T07:23:50;10.00;;;1.88;;
15312;SDS011;7757;52.626;4.746;2023-08-17T07:26:16;10.38;;;1.90;;
15312;SDS011;7757;52.626;4.746;2023-08-17T07:28:43;8.48;;;1.55;;
15312;SDS011;7757;52.626;4.746;2023-08-17T07:31:09;9.50;;;1.70;;
15312;SDS011;7757;52.626;4.746;2023-08-17T07:33:35;6.55;;;1.52;;
15312;SDS011;7757;52.626;4.746;2023-08-17T07:36:00;5.43;;;1.55;;
15312;SDS011;7757;52.626;4.746;2023-08-17T07:38:26;6.70;;;1.98;;
15312;SDS011;7757;52.626;4.746;2023-08-17T07:40:51;7.50;;;1.45;;
15312;SDS011;7757;52.626;4.746;2023-08-17T07:43:16;6.65;;;1.60;;
15312;SDS011;7757;52.626;4.746;2023-08-17T07:45:42;8.80;;;1.70;;
15312;SDS011;7757;52.626;4.746;2023-08-17T07:48:07;6.95;;;1.40;;
15312;SDS011;7757;52.626;4.746;2023-08-17T07:50:33;7.38;;;1.45;;
15312;SDS011;7757;52.626;4.746;2023-08-17T07:52:58;7.28;;;1.70;;
15312;SDS011;7757;52.626;4.746;2023-08-17T07:55:25;6.88;;;1.55;;
15312;SDS011;7757;52.626;4.746;2023-08-17T07:57:54;8.98;;;1.65;;
15312;SDS011;7757;52.626;4.746;2023-08-17T08:00:19;6.15;;;1.50;;
15312;SDS011;7757;52.626;4.746;2023-08-17T08:02:45;4.88;;;1.60;;
15312;SDS011;7757;52.626;4.746;2023-08-17T08:05:11;7.03;;;1.50;;
15312;SDS011;7757;52.626;4.746;2023-08-17T08:07:40;9.98;;;1.70;;
15312;SDS011;7757;52.626;4.746;2023-08-17T08:10:06;9.63;;;1.85;;
15312;SDS011;7757;52.626;4.746;2023-08-17T08:12:32;9.73;;;1.80;;
15312;SDS011;7757;52.626;4.746;2023-08-17T08:14:59;8.13;;;2.28;;
15312;SDS011;7757;52.626;4.746;2023-08-17T08:17:25;6.57;;;1.80;;
15312;SDS011;7757;52.626;4.746;2023-08-17T08:19:51;9.10;;;1.60;;
15312;SDS011;7757;52.626;4.746;2023-08-17T08:22:16;7.88;;;1.65;;
15312;SDS011;7757;52.626;4.746;2023-08-17T08:24:42;7.50;;;1.50;;
15312;SDS011;7757;52.626;4.746;2023-08-17T08:27:09;10.00;;;1.67;;
15312;SDS011;7757;52.626;4.746;2023-08-17T08:29:34;6.63;;;1.75;;
15312;SDS011;7757;52.626;4.746;2023-08-17T08:32:00;8.15;;;1.90;;
15312;SDS011;7757;52.626;4.746;2023-08-17T08:34:27;9.60;;;2.33;;
15312;SDS011;7757;52.626;4.746;2023-08-17T08:36:53;11.27;;;2.08;;
15312;SDS011;7757;52.626;4.746;2023-08-17T08:39:19;11.05;;;1.90;;
15312;SDS011;7757;52.626;4.746;2023-08-17T08:41:45;7.65;;;1.70;;
15312;SDS011;7757;52.626;4.746;2023-08-17T08:44:12;6.40;;;1.90;;
15312;SDS011;7757;52.626;4.746;2023-08-17T08:46:38;6.88;;;1.77;;
15312;SDS011;7757;52.626;4.746;2023-08-17T08:49:06;4.97;;;1.33;;
15312;SDS011;7757;52.626;4.746;2023-08-17T08:51:35;7.55;;;1.95;;
15312;SDS011;7757;52.626;4.746;2023-08-17T08:54:06;10.55;;;1.95;;
15312;SDS011;7757;52.626;4.746;2023-08-17T08:56:37;7.05;;;1.80;;
15312;SDS011;7757;52.626;4.746;2023-08-17T08:59:07;8.10;;;1.80;;
15312;SDS011;7757;52.626;4.746;2023-08-17T09:01:34;12.50;;;2.97;;
15312;SDS011;7757;52.626;4.746;2023-08-17T09:04:00;7.47;;;2.00;;
15312;SDS011;7757;52.626;4.746;2023-08-17T09:06:29;10.25;;;1.85;;
15312;SDS011;7757;52.626;4.746;2023-08-17T09:08:57;9.13;;;2.25;;
15312;SDS011;7757;52.626;4.746;2023-08-17T09:11:23;10.30;;;2.00;;
15312;SDS011;7757;52.626;4.746;2023-08-17T09:13:52;9.13;;;2.13;;
15312;SDS011;7757;52.626;4.746;2023-08-17T09:16:21;8.70;;;2.20;;
15312;SDS011;7757;52.626;4.746;2023-08-17T09:18:48;9.38;;;2.10;;
15312;SDS011;7757;52.626;4.746;2023-08-17T09:21:20;7.82;;;1.90;;
15312;SDS011;7757;52.626;4.746;2023-08-17T09:23:51;7.30;;;1.83;;
15312;SDS011;7757;52.626;4.746;2023-08-17T09:26:21;9.68;;;2.22;;
15312;SDS011;7757;52.626;4.746;2023-08-17T09:28:52;10.48;;;2.40;;
15312;SDS011;7757;52.626;4.746;2023-08-17T09:31:21;11.68;;;2.58;;
15312;SDS011;7757;52.626;4.746;2023-08-17T09:33:52;9.13;;;2.00;;
15312;SDS011;7757;52.626;4.746;2023-08-17T09:36:21;9.90;;;2.28;;
15312;SDS011;7757;52.626;4.746;2023-08-17T09:38:50;7.90;;;1.98;;
15312;SDS011;7757;52.626;4.746;2023-08-17T09:41:26;12.40;;;2.38;;
15312;SDS011;7757;52.626;4.746;2023-08-17T09:43:54;9.88;;;2.33;;
15312;SDS011;7757;52.626;4.746;2023-08-17T09:46:21;8.18;;;2.08;;
15312;SDS011;7757;52.626;4.746;2023-08-17T09:48:47;8.85;;;1.98;;
15312;SDS011;7757;52.626;4.746;2023-08-17T09:51:16;13.32;;;2.33;;
15312;SDS011;7757;52.626;4.746;2023-08-17T09:53:42;7.30;;;2.00;;
15312;SDS011;7757;52.626;4.746;2023-08-17T09:56:09;8.90;;;2.13;;
15312;SDS011;7757;52.626;4.746;2023-08-17T09:58:36;9.27;;;2.17;;
15312;SDS011;7757;52.626;4.746;2023-08-17T10:01:03;9.90;;;2.35;;
15312;SDS011;7757;52.626;4.746;2023-08-17T10:03:32;7.25;;;1.95;;
15312;SDS011;7757;52.626;4.746;2023-08-17T10:06:01;9.40;;;2.03;;
15312;SDS011;7757;52.626;4.746;2023-08-17T10:08:31;8.60;;;2.10;;
15312;SDS011;7757;52.626;4.746;2023-08-17T10:10:59;11.05;;;1.90;;
15312;SDS011;7757;52.626;4.746;2023-08-17T10:13:30;11.27;;;1.90;;
15312;SDS011;7757;52.626;4.746;2023-08-17T10:16:43;6.57;;;1.55;;
15312;SDS011;7757;52.626;4.746;2023-08-17T10:18:54;7.63;;;1.95;;
15312;SDS011;7757;52.626;4.746;2023-08-17T10:21:24;7.72;;;2.00;;
15312;SDS011;7757;52.626;4.746;2023-08-17T10:23:55;10.27;;;1.90;;
15312;SDS011;7757;52.626;4.746;2023-08-17T10:26:21;9.75;;;1.90;;
15312;SDS011;7757;52.626;4.746;2023-08-17T10:28:47;8.23;;;2.03;;
15312;SDS011;7757;52.626;4.746;2023-08-17T10:31:13;8.45;;;1.83;;
15312;SDS011;7757;52.626;4.746;2023-08-17T10:33:39;10.05;;;1.75;;
15312;SDS011;7757;52.626;4.746;2023-08-17T10:36:07;5.72;;;1.63;;
15312;SDS011;7757;52.626;4.746;2023-08-17T10:38:33;7.32;;;1.85;;
15312;SDS011;7757;52.626;4.746;2023-08-17T10:41:08;7.88;;;1.85;;
15312;SDS011;7757;52.626;4.746;2023-08-17T10:43:53;9.18;;;2.15;;
15312;SDS011;7757;52.626;4.746;2023-08-17T10:46:19;8.60;;;1.80;;
15312;SDS011;7757;52.626;4.746;2023-08-17T10:48:44;7.70;;;1.90;;
15312;SDS011;7757;52.626;4.746;2023-08-17T10:51:10;8.02;;;1.70;;
15312;SDS011;7757;52.626;4.746;2023-08-17T10:53:40;7.80;;;1.73;;
15312;SDS011;7757;52.626;4.746;2023-08-17T10:56:10;8.77;;;1.70;;
15312;SDS011;7757;52.626;4.746;2023-08-17T10:58:38;7.13;;;1.73;;
15312;SDS011;7757;52.626;4.746;2023-08-17T11:01:03;9.35;;;2.13;;
15312;SDS011;7757;52.626;4.746;2023-08-17T11:03:31;6.00;;;1.60;;
15312;SDS011;7757;52.626;4.746;2023-08-17T11:05:58;9.77;;;1.77;;
15312;SDS011;7757;52.626;4.746;2023-08-17T11:08:40;8.02;;;1.77;;
15312;SDS011;7757;52.626;4.746;2023-08-17T11:11:16;8.85;;;1.80;;
15312;SDS011;7757;52.626;4.746;2023-08-17T11:13:45;7.85;;;1.75;;
15312;SDS011;7757;52.626;4.746;2023-08-17T11:16:12;7.22;;;1.60;;
15312;SDS011;7757;52.626;4.746;2023-08-17T11:18:39;9.27;;;1.92;;
15312;SDS011;7757;52.626;4.746;2023-08-17T11:21:06;9.45;;;1.80;;
15312;SDS011;7757;52.626;4.746;2023-08-17T11:23:34;11.20;;;2.00;;
15312;SDS011;7757;52.626;4.746;2023-08-17T11:26:01;5.28;;;1.77;;
15312;SDS011;7757;52.626;4.746;2023-08-17T11:28:28;10.95;;;1.98;;
15312;SDS011;7757;52.626;4.746;2023-08-17T11:33:27;9.77;;;1.90;;
15312;SDS011;7757;52.626;4.746;2023-08-17T11:35:54;7.20;;;1.85;;
15312;SDS011;7757;52.626;4.746;2023-08-17T11:38:20;6.88;;;1.90;;
15312;SDS011;7757;52.626;4.746;2023-08-17T11:40:45;12.75;;;1.83;;
15312;SDS011;7757;52.626;4.746;2023-08-17T11:43:11;9.00;;;1.95;;
15312;SDS011;7757;52.626;4.746;2023-08-17T11:45:36;7.32;;;2.00;;
15312;SDS011;7757;52.626;4.746;2023-08-17T11:48:05;7.47;;;1.90;;
15312;SDS011;7757;52.626;4.746;2023-08-17T11:50:34;9.80;;;2.03;;
15312;SDS011;7757;52.626;4.746;2023-08-17T11:53:00;7.88;;;2.03;;
15312;SDS011;7757;52.626;4.746;2023-08-17T11:55:26;8.70;;;1.90;;
15312;SDS011;7757;52.626;4.746;2023-08-17T11:57:52;7.60;;;2.10;;
15312;SDS011;7757;52.626;4.746;2023-08-17T12:00:18;7.93;;;1.90;;
15312;SDS011;7757;52.626;4.746;2023-08-17T12:02:51;12.00;;;2.40;;
15312;SDS011;7757;52.626;4.746;2023-08-17T12:05:21;8.73;;;2.10;;
15312;SDS011;7757;52.626;4.746;2023-08-17T12:07:49;8.32;;;2.10;;
15312;SDS011;7757;52.626;4.746;2023-08-17T12:10:18;10.63;;;2.20;;
15312;SDS011;7757;52.626;4.746;2023-08-17T12:12:46;11.73;;;2.28;;
15312;SDS011;7757;52.626;4.746;2023-08-17T12:15:14;12.48;;;2.00;;
15312;SDS011;7757;52.626;4.746;2023-08-17T12:17:48;12.57;;;2.25;;
15312;SDS011;7757;52.626;4.746;2023-08-17T12:20:18;11.38;;;2.25;;
15312;SDS011;7757;52.626;4.746;2023-08-17T12:22:48;7.75;;;1.88;;
15312;SDS011;7757;52.626;4.746;2023-08-17T12:25:15;8.05;;;2.35;;
15312;SDS011;7757;52.626;4.746;2023-08-17T12:27:40;7.30;;;2.00;;
15312;SDS011;7757;52.626;4.746;2023-08-17T12:30:13;9.35;;;2.30;;
15312;SDS011;7757;52.626;4.746;2023-08-17T12:32:49;12.02;;;2.53;;
15312;SDS011;7757;52.626;4.746;2023-08-17T12:35:14;9.60;;;2.15;;
15312;SDS011;7757;52.626;4.746;2023-08-17T12:37:40;11.77;;;2.20;;
15312;SDS011;7757;52.626;4.746;2023-08-17T12:40:05;9.98;;;2.40;;
15312;SDS011;7757;52.626;4.746;2023-08-17T12:42:33;9.20;;;2.15;;
15312;SDS011;7757;52.626;4.746;2023-08-17T12:45:00;13.30;;;2.60;;
15312;SDS011;7757;52.626;4.746;2023-08-17T12:47:25;11.40;;;2.50;;
15312;SDS011;7757;52.626;4.746;2023-08-17T12:49:52;10.90;;;2.47;;
15312;SDS011;7757;52.626;4.746;2023-08-17T12:52:18;10.23;;;2.30;;
15312;SDS011;7757;52.626;4.746;2023-08-17T12:54:44;10.23;;;2.22;;
15312;SDS011;7757;52.626;4.746;2023-08-17T12:57:10;10.55;;;2.38;;
15312;SDS011;7757;52.626;4.746;2023-08-17T12:59:35;10.35;;;2.25;;
15312;SDS011;7757;52.626;4.746;2023-08-17T13:02:01;8.98;;;2.15;;
15312;SDS011;7757;52.626;4.746;2023-08-17T13:04:26;10.85;;;3.20;;
15312;SDS011;7757;52.626;4.746;2023-08-17T13:06:52;11.15;;;2.25;;
15312;SDS011;7757;52.626;4.746;2023-08-17T13:09:18;10.52;;;2.30;;
15312;SDS011;7757;52.626;4.746;2023-08-17T13:11:45;11.88;;;2.60;;
15312;SDS011;7757;52.626;4.746;2023-08-17T13:14:13;10.00;;;2.53;;
15312;SDS011;7757;52.626;4.746;2023-08-17T13:16:40;11.25;;;2.25;;
15312;SDS011;7757;52.626;4.746;2023-08-17T13:19:06;12.30;;;2.60;;
15312;SDS011;7757;52.626;4.746;2023-08-17T13:21:32;10.98;;;2.47;;
15312;SDS011;7757;52.626;4.746;2023-08-17T13:23:57;12.52;;;2.45;;
15312;SDS011;7757;52.626;4.746;2023-08-17T13:26:23;9.95;;;2.88;;
15312;SDS011;7757;52.626;4.746;2023-08-17T13:28:50;11.73;;;2.40;;
15312;SDS011;7757;52.626;4.746;2023-08-17T13:31:17;9.88;;;2.65;;
15312;SDS011;7757;52.626;4.746;2023-08-17T13:33:43;10.23;;;2.45;;
15312;SDS011;7757;52.626;4.746;2023-08-17T13:36:08;9.75;;;2.45;;
15312;SDS011;7757;52.626;4.746;2023-08-17T13:38:34;15.70;;;2.50;;
15312;SDS011;7757;52.626;4.746;2023-08-17T13:41:00;8.50;;;2.33;;
15312;SDS011;7757;52.626;4.746;2023-08-17T13:43:25;12.25;;;2.47;;
15312;SDS011;7757;52.626;4.746;2023-08-17T13:45:50;13.85;;;2.80;;
15312;SDS011;7757;52.626;4.746;2023-08-17T13:48:16;11.40;;;2.58;;
15312;SDS011;7757;52.626;4.746;2023-08-17T13:50:41;9.55;;;2.38;;
15312;SDS011;7757;52.626;4.746;2023-08-17T13:53:08;14.80;;;2.60;;
15312;SDS011;7757;52.626;4.746;2023-08-17T13:55:33;10.93;;;2.58;;
15312;SDS011;7757;52.626;4.746;2023-08-17T13:57:59;10.80;;;2.88;;
15312;SDS011;7757;52.626;4.746;2023-08-17T14:00:27;9.85;;;2.63;;
15312;SDS011;7757;52.626;4.746;2023-08-17T14:02:53;9.75;;;2.67;;
15312;SDS011;7757;52.626;4.746;2023-08-17T14:05:20;11.50;;;2.60;;
15312;SDS011;7757;52.626;4.746;2023-08-17T14:07:47;10.05;;;2.50;;
15312;SDS011;7757;52.626;4.746;2023-08-17T14:10:13;12.25;;;2.83;;
15312;SDS011;7757;52.626;4.746;2023-08-17T14:12:39;10.30;;;2.67;;
15312;SDS011;7757;52.626;4.746;2023-08-17T14:15:05;12.43;;;2.70;;
15312;SDS011;7757;52.626;4.746;2023-08-17T14:17:31;15.27;;;3.03;;
15312;SDS011;7757;52.626;4.746;2023-08-17T14:19:57;10.07;;;2.50;;
15312;SDS011;7757;52.626;4.746;2023-08-17T14:22:24;13.70;;;2.85;;
15312;SDS011;7757;52.626;4.746;2023-08-17T14:24:51;11.32;;;2.58;;
15312;SDS011;7757;52.626;4.746;2023-08-17T14:27:16;13.95;;;2.70;;
15312;SDS011;7757;52.626;4.746;2023-08-17T14:29:42;11.45;;;2.70;;
15312;SDS011;7757;52.626;4.746;2023-08-17T14:32:08;16.52;;;3.08;;
15312;SDS011;7757;52.626;4.746;2023-08-17T14:34:34;13.18;;;2.95;;
15312;SDS011;7757;52.626;4.746;2023-08-17T14:36:59;14.82;;;3.00;;
15312;SDS011;7757;52.626;4.746;2023-08-17T14:39:24;12.93;;;2.80;;
15312;SDS011;7757;52.626;4.746;2023-08-17T14:41:50;10.63;;;3.08;;
15312;SDS011;7757;52.626;4.746;2023-08-17T14:44:18;11.77;;;3.30;;
15312;SDS011;7757;52.626;4.746;2023-08-17T14:46:43;13.85;;;3.45;;
15312;SDS011;7757;52.626;4.746;2023-08-17T14:49:09;9.93;;;2.53;;
15312;SDS011;7757;52.626;4.746;2023-08-17T14:51:37;12.43;;;3.10;;
15312;SDS011;7757;52.626;4.746;2023-08-17T14:54:04;10.77;;;3.22;;